Time;durP1;ratioP1;P1;durP2;ratioP2;P2;SDS_P1;SDS_P2;PMS_P1;PMS_P2;Temp;Humidity;BMP_temperature;BMP_pressure;BME280_temperature;BME280_humidity;BME280_pressure;Samples;Min_cycle;Max_cycle;Signal;HPM_P1;HPM_P2
2021/01/20 00:01:56;;;;;;;24.90;13.57;;;;;;;0.96;79.78;100116.72;4995381;28;20430;-73
2021/01/20 00:04:21;;;;;;;22.77;12.32;;;;;;;0.96;79.92;100114.97;5012857;28;20082;-72
2021/01/20 00:06:48;;;;;;;19.65;11.88;;;;;;;0.85;79.68;100090.72;4995563;28;20088;-73
2021/01/20 00:09:14;;;;;;;24.92;12.85;;;;;;;1.06;78.94;100113.88;5012609;28;20041;-74
2021/01/20 00:11:40;;;;;;;22.48;12.43;;;;;;;1.05;79.58;100114.75;5012828;28;20044;-71
2021/01/20 00:14:05;;;;;;;22.58;12.95;;;;;;;0.72;79.54;100060.41;4996549;28;20091;-71
2021/01/20 00:16:31;;;;;;;23.83;12.45;;;;;;;1.05;79.89;100124.41;5016381;28;20383;-72
2021/01/20 00:18:56;;;;;;;25.02;12.65;;;;;;;1.00;79.25;100108.75;4999126;28;20030;-72
2021/01/20 00:21:23;;;;;;;23.45;12.55;;;;;;;1.13;79.29;100120.69;4998831;28;20062;-71
2021/01/20 00:23:49;;;;;;;21.13;12.43;;;;;;;1.10;78.85;100098.91;4999299;28;20034;-71
2021/01/20 00:26:15;;;;;;;24.90;12.85;;;;;;;0.97;78.94;100076.47;4998549;28;20034;-73
2021/01/20 00:28:41;;;;;;;26.60;12.48;;;;;;;1.29;78.39;100097.56;5016756;28;20045;-70
2021/01/20 00:31:06;;;;;;;24.75;12.60;;;;;;;1.22;78.67;100108.25;4982739;28;20026;-69
2021/01/20 00:33:32;;;;;;;26.33;12.55;;;;;;;1.27;78.45;100111.63;4998543;28;20038;-70
2021/01/20 00:35:58;;;;;;;24.33;13.23;;;;;;;1.24;78.24;100111.69;5016237;28;20054;-69
2021/01/20 00:38:24;;;;;;;22.30;12.35;;;;;;;1.27;78.69;100128.25;4998354;28;20115;-69
2021/01/20 00:40:49;;;;;;;23.83;12.98;;;;;;;1.21;78.73;100132.78;4998845;28;20037;-69
2021/01/20 00:43:15;;;;;;;24.10;12.70;;;;;;;1.24;78.76;100138.81;4998599;28;20057;-73
2021/01/20 00:45:40;;;;;;;24.35;12.95;;;;;;;1.18;79.11;100139.00;5016131;28;20483;-70
2021/01/20 00:48:10;;;;;;;23.65;13.15;;;;;;;1.07;79.27;100120.88;4998445;28;20030;-70
2021/01/20 00:50:36;;;;;;;28.35;13.52;;;;;;;1.21;79.02;100122.28;5015724;28;20044;-70
2021/01/20 00:53:02;;;;;;;24.73;13.27;;;;;;;1.30;78.87;100122.06;5015878;28;20042;-71
2021/01/20 00:55:27;;;;;;;24.67;13.48;;;;;;;1.27;78.48;100122.16;5015476;28;20045;-69
2021/01/20 00:57:53;;;;;;;26.95;13.95;;;;;;;1.10;78.92;100102.41;4998200;28;20375;-70
2021/01/20 01:00:19;;;;;;;26.45;13.73;;;;;;;0.98;79.02;100071.16;5015600;28;20048;-70
2021/01/20 01:02:44;;;;;;;26.00;14.45;;;;;;;0.92;78.03;100063.44;4998017;28;20495;-69
2021/01/20 01:05:11;;;;;;;26.23;13.52;;;;;;;1.25;78.62;100110.78;4998125;28;20026;-70
2021/01/20 01:07:36;;;;;;;24.65;13.38;;;;;;;1.20;78.87;100116.16;5015261;28;20090;-69
2021/01/20 01:10:03;;;;;;;27.83;13.80;;;;;;;1.27;78.44;100123.00;5015701;28;20026;-69
2021/01/20 01:12:29;;;;;;;26.63;14.40;;;;;;;1.19;78.59;100113.59;5015160;28;20034;-71
2021/01/20 01:14:55;;;;;;;27.52;14.70;;;;;;;1.32;78.38;100107.97;5015557;28;20064;-71
2021/01/20 01:17:20;;;;;;;27.38;14.68;;;;;;;0.98;78.52;100083.44;5015335;28;20034;-71
2021/01/20 01:19:46;;;;;;;25.45;14.63;;;;;;;1.09;78.98;100102.44;5015513;28;20084;-70
2021/01/20 01:22:12;;;;;;;27.70;14.40;;;;;;;0.98;78.53;100067.69;5015324;28;20406;-70
2021/01/20 01:24:39;;;;;;;29.27;14.55;;;;;;;1.15;78.72;100105.75;5014567;28;20888;-69
2021/01/20 01:27:04;;;;;;;26.02;14.65;;;;;;;0.80;79.03;100046.22;4981414;28;20061;-70
2021/01/20 01:29:30;;;;;;;27.77;15.38;;;;;;;1.15;79.25;100107.53;4997430;28;20065;-69
2021/01/20 01:31:55;;;;;;;28.42;14.35;;;;;;;0.95;79.12;100073.00;5015486;28;20036;-69
2021/01/20 01:34:21;;;;;;;26.33;14.40;;;;;;;1.20;79.38;100117.94;5014662;28;20034;-69
2021/01/20 01:36:46;;;;;;;28.15;14.93;;;;;;;1.04;79.15;100080.66;4997537;28;20050;-71
2021/01/20 01:39:12;;;;;;;27.65;14.82;;;;;;;1.08;79.79;100093.69;5015195;28;20033;-71
2021/01/20 01:41:38;;;;;;;30.27;15.95;;;;;;;1.18;79.46;100112.72;5014662;28;20042;-73
2021/01/20 01:44:04;;;;;;;27.13;15.07;;;;;;;1.04;79.01;100059.63;4981553;28;20041;-71
2021/01/20 01:46:29;;;;;;;32.10;15.70;;;;;;;1.33;78.68;100106.22;5014418;28;20040;-72
2021/01/20 01:48:55;;;;;;;31.17;15.98;;;;;;;1.25;79.33;100101.13;4997764;28;20038;-72
2021/01/20 01:51:23;;;;;;;28.88;15.60;;;;;;;1.26;78.90;100104.66;5014611;28;20113;-75
2021/01/20 01:53:53;;;;;;;27.45;15.00;;;;;;;1.31;78.47;100106.25;4997434;28;20061;-73
2021/01/20 01:56:19;;;;;;;30.42;15.50;;;;;;;1.29;78.77;100102.81;5014548;28;20057;-73
2021/01/20 01:58:47;;;;;;;27.25;15.07;;;;;;;1.02;79.03;100064.06;4997553;28;20038;-74
2021/01/20 02:01:14;;;;;;;27.13;15.65;;;;;;;1.32;79.30;100104.50;4997363;28;20034;-72
2021/01/20 02:03:39;;;;;;;29.15;15.30;;;;;;;1.29;79.05;100075.66;5014311;28;20038;-74
2021/01/20 02:06:06;;;;;;;28.20;15.30;;;;;;;1.14;78.77;100075.13;5014638;28;20529;-74
2021/01/20 02:08:32;;;;;;;27.17;14.65;;;;;;;1.12;78.61;100048.03;5014318;28;20120;-72
2021/01/20 02:11:18;;;;;;;27.17;14.07;;;;;;;1.43;77.74;100084.91;5014342;28;20463;-72
2021/01/20 02:13:58;;;;;;;27.60;14.35;;;;;;;1.45;78.06;100121.69;4996793;28;20123;-72
2021/01/20 02:16:27;;;;;;;29.77;14.32;;;;;;;1.49;77.51;100110.19;5014192;28;20116;-72
2021/01/20 02:18:54;;;;;;;25.48;14.00;;;;;;;1.41;77.76;100106.88;5014549;28;20034;-73
2021/01/20 02:21:35;;;;;;;27.35;14.38;;;;;;;1.55;77.74;100112.69;5014026;28;20037;-73
2021/01/20 02:24:07;;;;;;;26.15;14.48;;;;;;;1.41;78.11;100104.25;5014029;28;20061;-72
2021/01/20 02:26:48;;;;;;;25.83;14.73;;;;;;;1.27;78.27;100093.25;5014067;28;20026;-72
2021/01/20 02:29:45;;;;;;;28.73;15.45;;;;;;;1.33;78.58;100108.84;5014450;28;20142;-73
2021/01/20 02:32:11;;;;;;;29.52;15.48;;;;;;;0.88;79.22;100059.16;5014121;28;20088;-71
2021/01/20 02:34:38;;;;;;;29.88;15.20;;;;;;;1.21;79.27;100117.03;4996177;28;20034;-72
2021/01/20 02:37:05;;;;;;;29.17;14.95;;;;;;;1.27;79.74;100117.75;5013164;28;20410;-73
2021/01/20 02:39:32;;;;;;;32.63;16.50;;;;;;;1.36;79.37;100127.19;4996256;28;20034;-73
2021/01/20 02:42:03;;;;;;;30.85;14.48;;;;;;;1.33;79.09;100128.09;5013812;28;20084;-72
2021/01/20 02:44:28;;;;;;;27.75;15.15;;;;;;;1.47;79.24;100127.78;5013452;28;20084;-72
2021/01/20 02:46:54;;;;;;;28.38;15.07;;;;;;;1.44;78.83;100136.56;5013747;28;20478;-74
2021/01/20 02:49:20;;;;;;;29.85;15.32;;;;;;;1.17;78.47;100076.84;4996568;28;20117;-73
2021/01/20 02:51:59;;;;;;;30.00;16.50;;;;;;;1.14;78.72;100074.28;5013646;28;20061;-71
2021/01/20 02:54:27;;;;;;;29.25;15.13;;;;;;;1.34;78.76;100102.69;4995825;28;20030;-76
2021/01/20 02:56:53;;;;;;;29.73;16.20;;;;;;;1.49;78.60;100123.34;5013639;28;20096;-72
2021/01/20 02:59:22;;;;;;;29.55;16.45;;;;;;;1.47;78.98;100125.16;5013763;28;20040;-72
2021/01/20 03:01:52;;;;;;;28.95;16.60;;;;;;;1.41;79.04;100114.78;5013386;28;20061;-73
2021/01/20 03:04:19;;;;;;;30.05;15.55;;;;;;;1.35;78.86;100099.16;4996494;28;20037;-72
2021/01/20 03:06:46;;;;;;;30.23;15.50;;;;;;;1.51;78.60;100120.66;5013137;28;20144;-72
2021/01/20 03:09:13;;;;;;;29.30;16.25;;;;;;;1.55;78.61;100138.97;5013362;28;20104;-72
2021/01/20 03:12:05;;;;;;;32.72;16.25;;;;;;;1.70;77.90;100135.06;4995671;28;20459;-74
2021/01/20 03:14:33;;;;;;;30.55;15.40;;;;;;;1.76;77.90;100120.91;4992688;28;20045;-75
2021/01/20 03:16:58;;;;;;;32.00;15.82;;;;;;;1.73;77.55;100132.34;5013681;28;20038;-75
2021/01/20 03:19:24;;;;;;;30.73;16.55;;;;;;;1.56;77.76;100109.16;5013236;28;20376;-74
2021/01/20 03:21:49;;;;;;;27.55;16.45;;;;;;;1.48;77.75;100095.31;4995507;28;20474;-75
2021/01/20 03:24:15;;;;;;;29.88;16.35;;;;;;;1.69;77.83;100136.84;5013464;28;20030;-74
2021/01/20 03:26:40;;;;;;;33.00;15.68;;;;;;;1.60;78.32;100134.44;4995620;28;20041;-75
2021/01/20 03:29:06;;;;;;;32.22;15.65;;;;;;;1.65;78.07;100135.19;5013561;28;20030;-74
2021/01/20 03:31:31;;;;;;;31.10;16.98;;;;;;;1.52;78.30;100122.38;4995675;28;20034;-74
2021/01/20 03:33:57;;;;;;;30.55;16.67;;;;;;;1.63;77.99;100136.13;4995568;28;20045;-75
2021/01/20 03:36:25;;;;;;;30.70;15.77;;;;;;;1.35;78.27;100086.91;5012903;28;20518;-74
2021/01/20 03:38:50;;;;;;;30.38;16.55;;;;;;;1.26;78.39;100074.00;5013031;28;20083;-72
2021/01/20 03:41:16;;;;;;;33.55;17.10;;;;;;;1.50;78.54;100124.19;4995416;28;20434;-72
2021/01/20 03:43:42;;;;;;;31.80;16.20;;;;;;;1.61;78.40;100137.94;4995223;28;20501;-72
2021/01/20 03:46:07;;;;;;;32.25;16.02;;;;;;;1.48;78.22;100124.25;4979297;28;20080;-72
2021/01/20 03:48:32;;;;;;;30.95;17.10;;;;;;;1.58;78.30;100133.63;4997279;28;20088;-73
2021/01/20 03:50:58;;;;;;;29.50;15.77;;;;;;;1.51;78.68;100115.41;4999471;28;20045;-73
2021/01/20 03:53:23;;;;;;;30.80;16.25;;;;;;;1.51;78.52;100132.03;5017218;28;20034;-72
2021/01/20 03:55:49;;;;;;;31.20;16.75;;;;;;;1.36;78.97;100128.03;4999140;28;20041;-72
2021/01/20 03:58:14;;;;;;;35.60;19.67;;;;;;;1.28;79.39;100129.13;5016905;28;20030;-72
2021/01/20 04:00:40;;;;;;;33.53;18.85;;;;;;;1.34;79.52;100132.44;4998916;28;20466;-73
2021/01/20 04:03:06;;;;;;;32.70;17.10;;;;;;;1.42;79.07;100142.78;5016858;28;20069;-72
2021/01/20 04:05:32;;;;;;;29.83;16.42;;;;;;;1.30;79.27;100122.06;5016431;28;20037;-72
2021/01/20 04:07:57;;;;;;;29.20;15.85;;;;;;;1.33;79.21;100133.34;5016716;28;20433;-71
2021/01/20 04:10:23;;;;;;;30.77;16.75;;;;;;;1.05;79.38;100085.88;4983326;28;20053;-71
2021/01/20 04:12:48;;;;;;;31.58;16.77;;;;;;;1.44;79.03;100149.72;5016348;28;20025;-72
2021/01/20 04:15:14;;;;;;;30.70;17.08;;;;;;;1.35;79.26;100138.56;5016620;28;20117;-72
2021/01/20 04:17:40;;;;;;;32.85;17.85;;;;;;;1.30;79.30;100140.47;4998810;28;20037;-70
2021/01/20 04:20:06;;;;;;;33.22;17.08;;;;;;;1.19;79.90;100139.84;4998971;28;20104;-73
2021/01/20 04:22:35;;;;;;;33.20;17.13;;;;;;;1.03;80.14;100131.47;5016239;28;20057;-73
2021/01/20 04:25:01;;;;;;;31.45;17.33;;;;;;;1.01;80.33;100144.63;4983428;28;20037;-73
2021/01/20 04:27:26;;;;;;;31.58;17.60;;;;;;;1.00;80.83;100152.56;5016425;28;20486;-72
2021/01/20 04:29:52;;;;;;;36.22;19.70;;;;;;;1.04;80.77;100149.81;5015936;28;20382;-73
2021/01/20 04:32:18;;;;;;;32.63;17.75;;;;;;;0.96;80.39;100125.47;4982346;28;20042;-72
2021/01/20 04:34:43;;;;;;;32.72;17.77;;;;;;;1.31;80.14;100163.22;5016059;28;20065;-73
2021/01/20 04:37:08;;;;;;;35.30;18.60;;;;;;;1.36;79.61;100154.31;5016387;28;20054;-72
2021/01/20 04:39:34;;;;;;;35.35;18.15;;;;;;;1.36;79.94;100164.84;4998781;28;20042;-73
2021/01/20 04:42:00;;;;;;;34.33;17.17;;;;;;;1.33;80.45;100164.88;5016044;28;20475;-72
2021/01/20 04:44:26;;;;;;;32.58;17.90;;;;;;;1.34;80.30;100173.63;5016111;28;20029;-72
2021/01/20 04:46:52;;;;;;;32.80;17.80;;;;;;;1.32;80.14;100159.69;5015508;28;20073;-71
2021/01/20 04:49:19;;;;;;;33.78;17.73;;;;;;;1.33;79.83;100164.03;4998458;28;20080;-71
2021/01/20 04:51:47;;;;;;;33.15;17.25;;;;;;;1.37;79.71;100150.78;4998083;28;20061;-72
2021/01/20 04:54:15;;;;;;;33.95;17.58;;;;;;;1.56;78.87;100166.97;4998657;28;20526;-72
2021/01/20 04:56:41;;;;;;;32.72;17.50;;;;;;;1.63;78.81;100175.56;5015360;28;20034;-72
2021/01/20 04:59:06;;;;;;;35.88;17.90;;;;;;;1.46;79.16;100152.34;4997633;28;20030;-72
2021/01/20 05:01:33;;;;;;;34.10;17.85;;;;;;;1.54;79.03;100146.88;5015546;28;20030;-71
2021/01/20 05:04:00;;;;;;;36.55;17.70;;;;;;;1.43;79.10;100145.38;5015723;28;20091;-72
2021/01/20 05:06:28;;;;;;;34.72;17.58;;;;;;;1.58;79.19;100153.78;5015488;28;20087;-71
2021/01/20 05:08:53;;;;;;;32.13;17.73;;;;;;;1.61;78.13;100143.19;5015264;28;20041;-72
2021/01/20 05:11:19;;;;;;;33.28;17.65;;;;;;;1.50;78.15;100124.19;5015767;28;20030;-72
2021/01/20 05:13:44;;;;;;;34.10;18.05;;;;;;;1.66;78.15;100142.19;5015113;28;20053;-73
2021/01/20 05:16:24;;;;;;;31.85;17.58;;;;;;;1.80;78.06;100169.88;4997934;28;20045;-72
2021/01/20 05:18:49;;;;;;;33.95;18.15;;;;;;;1.69;78.37;100178.91;5015082;28;20037;-73
2021/01/20 05:21:18;;;;;;;32.92;18.08;;;;;;;1.81;78.17;100176.88;5015304;28;20038;-72
2021/01/20 05:23:44;;;;;;;31.55;17.92;;;;;;;1.79;78.13;100166.38;4997959;28;20030;-73
2021/01/20 05:26:10;;;;;;;33.33;17.80;;;;;;;1.44;78.21;100133.09;4997747;28;20040;-73
2021/01/20 05:28:36;;;;;;;32.95;18.02;;;;;;;1.18;79.13;100115.34;5015003;28;20041;-76
2021/01/20 05:31:04;;;;;;;31.38;17.42;;;;;;;1.43;79.40;100166.41;4997335;28;20128;-75
2021/01/20 05:33:38;;;;;;;35.03;18.38;;;;;;;1.44;79.47;100160.22;5015371;28;20038;-75
2021/01/20 05:36:09;;;;;;;35.03;19.08;;;;;;;1.55;78.95;100165.25;5015153;28;20065;-75
2021/01/20 05:38:39;;;;;;;34.38;17.92;;;;;;;1.17;78.92;100103.13;5015084;28;20521;-75
2021/01/20 05:41:33;;;;;;;34.45;17.92;;;;;;;1.49;79.02;100164.53;5023209;28;20372;-73
2021/01/20 05:44:08;;;;;;;32.30;18.45;;;;;;;1.35;79.61;100171.00;5021437;28;20049;-71
2021/01/20 05:46:38;;;;;;;38.08;18.52;;;;;;;1.33;79.63;100164.88;5034449;28;20065;-72
2021/01/20 05:49:05;;;;;;;33.72;18.52;;;;;;;1.25;79.89;100160.72;5034906;28;20033;-72
2021/01/20 05:51:41;;;;;;;36.83;18.35;;;;;;;1.32;79.52;100173.69;5004614;28;20087;-71
2021/01/20 05:54:08;;;;;;;29.42;17.52;;;;;;;1.31;79.83;100171.09;5014670;28;20531;-72
2021/01/20 05:56:34;;;;;;;34.15;17.95;;;;;;;1.33;79.80;100161.41;5014534;28;20459;-71
2021/01/20 05:59:00;;;;;;;34.53;19.08;;;;;;;1.36;79.22;100151.69;4996877;28;20038;-71
2021/01/20 06:01:26;;;;;;;32.72;18.20;;;;;;;1.25;78.77;100155.47;5025762;28;20048;-75
2021/01/20 06:03:53;;;;;;;33.58;18.73;;;;;;;1.52;78.47;100196.84;5016273;28;20037;-73
2021/01/20 06:06:20;;;;;;;33.60;18.02;;;;;;;1.58;78.56;100201.13;5016339;28;20591;-73
2021/01/20 06:08:46;;;;;;;33.38;18.13;;;;;;;1.54;78.33;100184.53;5033955;28;20064;-73
2021/01/20 06:11:13;;;;;;;33.63;17.88;;;;;;;1.44;78.49;100188.28;5034244;28;20037;-72
2021/01/20 06:13:39;;;;;;;32.08;17.80;;;;;;;1.49;78.72;100202.19;5034367;28;20466;-76
2021/01/20 06:16:16;;;;;;;35.88;18.02;;;;;;;1.57;78.89;100209.91;4999908;28;20032;-72
2021/01/20 06:18:55;;;;;;;30.75;17.48;;;;;;;1.60;78.10;100221.19;5033871;28;20038;-73
2021/01/20 06:21:21;;;;;;;35.97;18.98;;;;;;;1.57;78.06;100205.50;5034047;28;20037;-71
2021/01/20 06:23:57;;;;;;;37.47;19.15;;;;;;;1.62;77.89;100235.16;5016392;28;20041;-72
2021/01/20 06:26:25;;;;;;;35.17;18.50;;;;;;;1.63;77.92;100236.91;5016343;28;20030;-70
2021/01/20 06:28:55;;;;;;;36.05;17.50;;;;;;;1.58;77.63;100211.63;5015681;28;20076;-70
2021/01/20 06:31:29;;;;;;;30.63;18.52;;;;;;;1.60;77.58;100226.47;5033817;28;20037;-72
2021/01/20 06:33:54;;;;;;;33.40;18.58;;;;;;;1.32;77.54;100186.81;5034105;28;20045;-72
2021/01/20 06:36:31;;;;;;;35.45;19.20;;;;;;;1.58;77.69;100237.91;5033662;28;20049;-72
2021/01/20 06:38:57;;;;;;;36.13;19.10;;;;;;;1.54;77.94;100241.50;5033350;28;20107;-70
2021/01/20 06:41:40;;;;;;;42.67;20.70;;;;;;;1.58;77.86;100244.03;5033683;28;20072;-72
2021/01/20 06:44:11;;;;;;;40.47;21.70;;;;;;;1.54;78.08;100245.00;5033696;28;20163;-71
2021/01/20 06:46:37;;;;;;;42.20;22.40;;;;;;;1.49;78.24;100230.25;5016830;28;20038;-72
2021/01/20 06:49:04;;;;;;;38.25;20.55;;;;;;;1.62;78.20;100240.44;5033338;28;20064;-72
2021/01/20 06:51:30;;;;;;;35.45;19.88;;;;;;;1.53;77.69;100230.13;5016131;28;20034;-71
2021/01/20 06:53:59;;;;;;;38.33;20.15;;;;;;;1.70;77.43;100237.63;5033339;28;20466;-73
2021/01/20 06:56:36;;;;;;;38.45;19.15;;;;;;;1.43;77.16;100186.56;5033458;28;20087;-75
2021/01/20 06:59:40;;;;;;;33.58;17.88;;;;;;;1.78;77.41;100245.34;5033370;28;20378;-73
2021/01/20 07:02:08;;;;;;;38.10;19.83;;;;;;;1.71;77.35;100239.34;4956150;28;20034;-73
2021/01/20 07:04:39;;;;;;;33.45;18.70;;;;;;;1.80;77.36;100243.53;4972239;28;20082;-74
2021/01/20 07:07:12;;;;;;;36.58;19.00;;;;;;;1.93;77.09;100258.09;5003441;28;20052;-69
2021/01/20 07:09:50;;;;;;;37.13;19.23;;;;;;;1.87;77.07;100250.38;5016274;28;20037;-70
2021/01/20 07:12:22;;;;;;;36.50;18.80;;;;;;;1.89;77.01;100259.06;5033519;28;20109;-70
2021/01/20 07:14:52;;;;;;;36.30;18.48;;;;;;;1.92;76.63;100259.00;5015276;28;20040;-70
2021/01/20 07:17:18;;;;;;;36.67;19.48;;;;;;;1.85;76.97;100241.66;5033124;28;20061;-74
2021/01/20 07:19:45;;;;;;;34.60;18.63;;;;;;;2.06;76.11;100254.28;5033094;28;20034;-73
2021/01/20 07:22:11;;;;;;;35.10;18.25;;;;;;;2.08;75.64;100239.28;5032634;28;20034;-71
2021/01/20 07:24:38;;;;;;;34.28;18.10;;;;;;;2.29;75.08;100251.88;5015464;28;20033;-72
2021/01/20 07:27:11;;;;;;;36.38;18.70;;;;;;;2.12;74.53;100201.47;5032915;28;20394;-73
2021/01/20 07:29:37;;;;;;;34.60;17.83;;;;;;;2.23;74.24;100223.13;5032677;28;20025;-73
2021/01/20 07:32:03;;;;;;;36.80;18.98;;;;;;;2.28;74.38;100221.22;5015315;28;20056;-73
2021/01/20 07:34:36;;;;;;;34.05;19.88;;;;;;;2.43;74.15;100242.78;5033015;28;20545;-72
2021/01/20 07:37:16;;;;;;;32.90;18.55;;;;;;;2.43;74.02;100240.16;5014983;28;20052;-72
2021/01/20 07:39:42;;;;;;;38.30;19.33;;;;;;;2.33;74.01;100222.88;5033199;28;20033;-73
2021/01/20 07:42:08;;;;;;;37.17;19.40;;;;;;;2.47;73.84;100247.91;5032656;28;20026;-72
2021/01/20 07:44:35;;;;;;;34.22;17.98;;;;;;;2.52;73.53;100251.28;5032719;28;20041;-73
2021/01/20 07:47:04;;;;;;;32.70;19.15;;;;;;;2.63;73.12;100255.41;5032620;28;20034;-71
2021/01/20 07:49:31;;;;;;;33.78;18.20;;;;;;;2.65;72.98;100261.47;5032658;28;20030;-72
2021/01/20 07:52:03;;;;;;;32.65;18.60;;;;;;;2.72;73.42;100279.72;5032430;28;20032;-73
2021/01/20 07:54:39;;;;;;;37.65;18.48;;;;;;;2.72;73.50;100281.50;5032734;28;20029;-72
2021/01/20 07:57:06;;;;;;;35.53;18.63;;;;;;;2.87;72.71;100289.81;5032195;28;20386;-72
2021/01/20 07:59:32;;;;;;;35.78;20.30;;;;;;;2.94;72.85;100294.91;5032675;28;20116;-71
2021/01/20 08:02:08;;;;;;;37.55;19.85;;;;;;;3.01;72.33;100291.22;5014759;28;20172;-71
2021/01/20 08:04:33;;;;;;;33.60;19.42;;;;;;;3.00;72.67;100294.75;5032654;28;20470;-70
2021/01/20 08:06:59;;;;;;;38.13;19.45;;;;;;;3.18;72.30;100294.19;5032228;28;20137;-72
2021/01/20 08:09:42;;;;;;;33.70;19.30;;;;;;;3.32;71.67;100292.03;5015067;28;20040;-71
2021/01/20 08:12:11;;;;;;;34.75;18.92;;;;;;;3.41;70.81;100294.41;5032539;28;20028;-71
2021/01/20 08:14:39;;;;;;;33.22;18.23;;;;;;;3.51;70.64;100305.53;5032600;28;20083;-71
2021/01/20 08:17:06;;;;;;;34.63;18.52;;;;;;;3.66;69.62;100302.41;5014954;28;20124;-71
2021/01/20 08:19:34;;;;;;;33.83;18.13;;;;;;;3.68;69.86;100295.31;5032529;28;20457;-72
2021/01/20 08:22:04;;;;;;;30.60;16.83;;;;;;;3.85;69.24;100300.03;5032398;28;20049;-70
2021/01/20 08:24:30;;;;;;;33.50;17.17;;;;;;;3.92;68.62;100293.66;5032533;28;20067;-71
2021/01/20 08:26:57;;;;;;;33.03;17.38;;;;;;;3.88;68.50;100280.63;5014560;28;20423;-73
2021/01/20 08:29:24;;;;;;;32.55;17.40;;;;;;;4.12;67.68;100300.94;5032464;28;20467;-71
2021/01/20 08:32:10;;;;;;;35.03;17.25;;;;;;;4.26;67.35;100298.72;5032406;28;20548;-72
2021/01/20 08:34:38;;;;;;;36.60;16.10;;;;;;;4.01;66.85;100243.22;5032682;28;20033;-71
2021/01/20 08:37:32;;;;;;;32.45;16.55;;;;;;;4.45;66.17;100298.97;5035696;28;20066;-71
2021/01/20 08:39:59;;;;;;;36.20;15.90;;;;;;;4.54;66.44;100301.28;5028582;28;20049;-70
2021/01/20 08:42:26;;;;;;;34.35;16.65;;;;;;;4.58;66.09;100302.88;5018417;28;20537;-71
2021/01/20 08:45:10;;;;;;;41.90;17.60;;;;;;;4.77;65.69;100296.97;5035786;28;20486;-71
2021/01/20 08:48:01;;;;;;;40.53;19.13;;;;;;;4.74;65.96;100302.38;5035847;28;20363;-71
2021/01/20 08:50:26;;;;;;;39.70;19.08;;;;;;;4.80;65.44;100305.63;5035947;28;20044;-71
2021/01/20 08:52:53;;;;;;;38.30;17.15;;;;;;;4.94;65.25;100306.94;5035575;28;20394;-72
2021/01/20 08:55:26;;;;;;;32.85;17.63;;;;;;;4.95;65.11;100301.59;5017994;28;20029;-71
2021/01/20 08:58:27;;;;;;;32.60;17.23;;;;;;;4.93;65.24;100305.22;5017974;28;20060;-72
2021/01/20 09:00:57;;;;;;;34.92;18.83;;;;;;;4.95;65.42;100309.53;5035521;28;20219;-71
2021/01/20 09:03:39;;;;;;;37.55;18.83;;;;;;;4.96;65.43;100299.81;5035646;28;20034;-71
2021/01/20 09:06:12;;;;;;;41.25;19.70;;;;;;;4.90;66.13;100303.53;5034533;28;20073;-72
2021/01/20 09:08:38;;;;;;;40.15;19.23;;;;;;;4.89;65.86;100307.09;5035637;28;20029;-71
2021/01/20 09:11:04;;;;;;;37.92;18.45;;;;;;;4.87;66.06;100307.16;5017404;28;20375;-71
2021/01/20 09:13:29;;;;;;;33.20;17.92;;;;;;;4.88;66.03;100300.06;5035450;28;20438;-71
2021/01/20 09:15:56;;;;;;;38.85;19.48;;;;;;;4.88;66.01;100305.38;5035569;28;20057;-70
2021/01/20 09:18:23;;;;;;;42.08;18.65;;;;;;;4.85;65.82;100302.84;5035412;28;20038;-71
2021/01/20 09:20:49;;;;;;;35.17;18.42;;;;;;;4.83;65.88;100296.75;5017882;28;20033;-72
2021/01/20 09:23:15;;;;;;;40.80;19.63;;;;;;;4.72;66.50;100286.53;5017260;28;20044;-71
2021/01/20 09:25:40;;;;;;;48.83;20.13;;;;;;;4.58;66.19;100247.41;5035514;28;20482;-71
2021/01/20 09:28:07;;;;;;;37.22;19.75;;;;;;;4.99;66.37;100300.53;5000679;28;20041;-72
2021/01/20 09:30:34;;;;;;;43.70;20.48;;;;;;;5.01;66.95;100296.06;5034944;28;20037;-72
2021/01/20 09:33:00;;;;;;;39.67;21.30;;;;;;;4.79;67.68;100268.69;5034966;28;20121;-71
2021/01/20 09:35:25;;;;;;;40.95;20.50;;;;;;;5.02;67.53;100284.59;5034838;28;20515;-71
2021/01/20 09:37:55;;;;;;;39.97;20.35;;;;;;;5.11;67.98;100294.81;5035010;28;20033;-72
2021/01/20 09:40:23;;;;;;;42.33;20.42;;;;;;;5.28;67.77;100296.81;5017372;28;20036;-72
2021/01/20 09:42:50;;;;;;;36.50;19.95;;;;;;;5.37;67.63;100287.69;5034776;28;20053;-71
2021/01/20 09:45:19;;;;;;;34.28;18.95;;;;;;;5.39;67.89;100281.41;5034434;28;20041;-71
2021/01/20 09:47:46;;;;;;;39.47;20.08;;;;;;;5.37;68.31;100279.75;5034775;28;20083;-71
2021/01/20 09:50:14;;;;;;;37.53;19.05;;;;;;;5.29;68.55;100263.31;5034563;28;20025;-71
2021/01/20 09:52:40;;;;;;;35.05;17.65;;;;;;;5.21;68.78;100241.56;5017127;28;20152;-71
2021/01/20 09:55:07;;;;;;;32.55;17.77;;;;;;;5.45;69.01;100275.03;5034593;28;20040;-71
2021/01/20 09:57:33;;;;;;;41.60;18.55;;;;;;;5.44;69.16;100271.53;5034528;28;20184;-72
2021/01/20 09:59:58;;;;;;;36.58;17.05;;;;;;;5.40;69.61;100258.44;5034437;28;20041;-70
2021/01/20 10:02:24;;;;;;;29.63;15.50;;;;;;;5.46;69.73;100252.94;5000366;28;20038;-71
2021/01/20 10:04:49;;;;;;;30.40;15.73;;;;;;;5.39;69.69;100240.88;5016769;28;20029;-72
2021/01/20 10:07:16;;;;;;;31.05;15.63;;;;;;;5.39;70.29;100254.09;5016613;28;20032;-72
2021/01/20 10:09:42;;;;;;;32.38;16.08;;;;;;;5.62;69.49;100248.78;5016546;28;20489;-72
2021/01/20 10:12:11;;;;;;;29.50;14.73;;;;;;;5.66;69.59;100250.38;5034064;28;20094;-72
2021/01/20 10:14:38;;;;;;;26.08;14.55;;;;;;;5.58;69.68;100239.22;5034398;28;20075;-71
2021/01/20 10:17:04;;;;;;;24.27;13.85;;;;;;;5.71;69.65;100248.41;5016371;28;20064;-71
2021/01/20 10:19:30;;;;;;;25.45;13.98;;;;;;;5.62;70.06;100248.78;5016982;28;20048;-72
2021/01/20 10:21:55;;;;;;;29.50;13.82;;;;;;;5.74;69.70;100250.91;5034006;28;20038;-72
2021/01/20 10:24:21;;;;;;;27.13;13.57;;;;;;;5.67;70.14;100246.78;5016305;28;20037;-72
2021/01/20 10:26:46;;;;;;;26.58;14.20;;;;;;;5.75;70.02;100252.63;5033714;28;20470;-72
2021/01/20 10:29:12;;;;;;;27.52;14.18;;;;;;;5.68;69.60;100214.09;5033996;28;20121;-72
2021/01/20 10:31:39;;;;;;;22.10;12.52;;;;;;;5.75;69.52;100234.13;5016408;28;20386;-71
2021/01/20 10:34:07;;;;;;;23.20;13.50;;;;;;;5.81;69.30;100226.88;5033784;28;20080;-70
2021/01/20 10:36:33;;;;;;;23.50;13.00;;;;;;;5.73;69.67;100230.66;5033622;28;20558;-71
2021/01/20 10:39:00;;;;;;;21.60;12.45;;;;;;;5.85;69.59;100233.75;5016101;28;20068;-70
2021/01/20 10:41:25;;;;;;;23.30;12.75;;;;;;;5.56;69.83;100195.22;5015938;28;20033;-71
2021/01/20 10:43:52;;;;;;;30.90;13.98;;;;;;;5.83;70.35;100238.25;5033559;28;20025;-72
2021/01/20 10:46:19;;;;;;;22.88;12.48;;;;;;;5.72;70.32;100213.06;5033409;28;20044;-71
2021/01/20 10:48:45;;;;;;;23.95;12.90;;;;;;;5.53;70.53;100179.50;5033824;28;20469;-70
2021/01/20 10:51:11;;;;;;;26.15;12.30;;;;;;;5.56;70.57;100174.06;5033448;28;20026;-72
2021/01/20 10:53:38;;;;;;;21.30;11.98;;;;;;;5.79;70.35;100199.56;5033516;28;20049;-71
2021/01/20 10:56:04;;;;;;;22.90;11.95;;;;;;;5.86;70.28;100203.69;5033414;28;20065;-71
2021/01/20 10:58:30;;;;;;;23.17;11.52;;;;;;;5.80;69.99;100177.50;5015226;28;20034;-71
2021/01/20 11:00:56;;;;;;;24.90;12.40;;;;;;;6.17;69.56;100214.75;5033350;28;20467;-70
2021/01/20 11:03:21;;;;;;;26.38;12.60;;;;;;;6.01;69.37;100181.91;5015372;28;20041;-71
2021/01/20 11:05:47;;;;;;;23.42;12.60;;;;;;;6.05;70.42;100212.63;5015897;28;20033;-71
2021/01/20 11:08:12;;;;;;;25.08;12.18;;;;;;;6.00;69.76;100170.47;5033099;28;20526;-71
2021/01/20 11:10:38;;;;;;;21.58;10.73;;;;;;;6.36;68.99;100198.06;5033378;28;20044;-71
2021/01/20 11:13:07;;;;;;;18.23;10.55;;;;;;;6.50;68.76;100206.28;5033722;28;20092;-71
2021/01/20 11:15:37;;;;;;;19.67;10.98;;;;;;;6.27;69.22;100186.97;5016291;28;20082;-71
2021/01/20 11:18:04;;;;;;;19.70;10.43;;;;;;;6.45;69.18;100195.88;5033241;28;20118;-73
2021/01/20 11:20:31;;;;;;;27.17;11.00;;;;;;;6.54;68.66;100191.94;5032742;28;20025;-71
2021/01/20 11:22:56;;;;;;;18.13;10.25;;;;;;;6.56;68.75;100193.63;5033004;28;20040;-71